createdAt,value
2018-12-14T00:00:25.500Z,7.60
2018-12-14T00:02:52.601Z,8.03
2018-12-14T00:05:19.724Z,7.37
2018-12-14T00:07:46.803Z,6.40
2018-12-14T00:10:13.925Z,7.27
2018-12-14T00:12:41.012Z,7.40
2018-12-14T00:15:08.116Z,7.30
2018-12-14T00:17:35.180Z,7.10
2018-12-14T00:20:03.460Z,7.50
2018-12-14T00:22:30.544Z,7.60
2018-12-14T00:24:57.656Z,7.00
2018-12-14T00:27:24.769Z,6.70
2018-12-14T00:29:51.880Z,7.43
2018-12-14T00:32:18.983Z,6.73
2018-12-14T00:34:46.095Z,6.77
2018-12-14T00:37:13.169Z,7.20
2018-12-14T00:39:40.281Z,6.97
2018-12-14T00:42:07.360Z,6.90
2018-12-14T00:44:34.474Z,6.50
2018-12-14T00:47:01.564Z,6.13
2018-12-14T00:49:28.656Z,6.73
2018-12-14T00:51:55.749Z,7.23
2018-12-14T00:54:22.843Z,7.27
2018-12-14T00:56:49.934Z,6.90
2018-12-14T00:59:17.036Z,7.33
2018-12-14T01:01:44.103Z,7.33
2018-12-14T01:04:11.192Z,6.80
2018-12-14T01:06:38.298Z,7.70
2018-12-14T01:09:05.437Z,6.50
2018-12-14T01:11:32.544Z,6.70
2018-12-14T01:13:59.673Z,6.37
2018-12-14T01:16:26.747Z,6.67
2018-12-14T01:18:53.857Z,6.97
2018-12-14T01:21:20.937Z,6.90
2018-12-14T01:23:48.020Z,6.63
2018-12-14T01:26:15.146Z,6.73
2018-12-14T01:28:42.208Z,6.50
2018-12-14T01:31:09.301Z,6.00
2018-12-14T01:33:36.850Z,5.60
2018-12-14T01:36:03.937Z,6.93
2018-12-14T01:38:31.036Z,7.13
2018-12-14T01:40:58.128Z,6.87
2018-12-14T01:43:25.241Z,6.87
2018-12-14T01:45:52.421Z,6.27
2018-12-14T01:48:19.512Z,6.87
2018-12-14T01:52:11.290Z,7.13
2018-12-14T01:54:38.418Z,6.60
2018-12-14T01:57:05.529Z,6.47
2018-12-14T01:59:32.656Z,7.23
2018-12-14T02:01:59.744Z,6.77
2018-12-14T02:04:26.850Z,6.23
2018-12-14T02:06:54.001Z,6.30
2018-12-14T02:09:21.099Z,6.27
2018-12-14T02:11:48.180Z,6.10
2018-12-14T02:14:15.264Z,6.03
2018-12-14T02:16:42.354Z,6.77
2018-12-14T02:19:09.446Z,6.80
2018-12-14T02:21:36.521Z,6.47
2018-12-14T02:24:03.608Z,6.87
2018-12-14T02:26:30.695Z,6.13
2018-12-14T02:28:57.799Z,6.30
2018-12-14T02:31:24.985Z,6.07
2018-12-14T02:33:52.077Z,6.07
2018-12-14T02:36:19.157Z,6.30
2018-12-14T02:38:46.212Z,6.73
2018-12-14T02:41:13.324Z,6.27
2018-12-14T02:43:40.456Z,6.40
2018-12-14T02:46:07.576Z,6.70
2018-12-14T02:48:34.777Z,6.53
2018-12-14T02:51:01.852Z,6.60
2018-12-14T02:53:28.936Z,6.47
2018-12-14T02:55:56.048Z,6.37
2018-12-14T02:58:23.144Z,6.30
2018-12-14T03:00:50.235Z,6.73
2018-12-14T03:03:17.336Z,6.53
2018-12-14T03:05:44.434Z,6.53
2018-12-14T03:08:11.547Z,5.80
2018-12-14T03:10:38.706Z,6.80
2018-12-14T03:13:05.785Z,6.53
2018-12-14T03:15:32.884Z,6.87
2018-12-14T03:17:59.969Z,7.13
2018-12-14T03:20:27.068Z,6.43
2018-12-14T03:22:54.163Z,6.27
2018-12-14T03:25:21.258Z,6.60
2018-12-14T03:27:48.328Z,6.73
2018-12-14T03:30:15.431Z,6.77
2018-12-14T03:32:42.528Z,6.90
2018-12-14T03:35:09.641Z,6.50
2018-12-14T03:37:36.807Z,6.57
2018-12-14T03:40:04.040Z,6.80
2018-12-14T03:42:34.587Z,6.33
2018-12-14T03:44:58.284Z,6.40
2018-12-14T03:47:25.392Z,6.03
2018-12-14T03:49:52.488Z,6.97
2018-12-14T03:52:19.614Z,6.60
2018-12-14T03:54:46.712Z,7.77
2018-12-14T03:57:13.797Z,7.00
2018-12-14T03:59:41.091Z,6.47
2018-12-14T04:02:08.181Z,6.87
2018-12-14T04:04:35.284Z,6.77
2018-12-14T04:07:02.409Z,7.27
2018-12-14T04:09:29.520Z,7.27
2018-12-14T04:11:56.636Z,6.87
2018-12-14T04:14:23.740Z,6.67
2018-12-14T04:16:50.839Z,6.70
2018-12-14T04:19:17.904Z,6.57
2018-12-14T04:21:45.007Z,6.50
2018-12-14T04:24:12.094Z,7.17
2018-12-14T04:26:39.199Z,7.50
2018-12-14T04:29:06.264Z,6.73
2018-12-14T04:31:33.333Z,7.03
2018-12-14T04:34:00.432Z,6.93
2018-12-14T04:37:30.402Z,6.93
2018-12-14T04:39:57.496Z,7.00
2018-12-14T04:42:24.608Z,6.60
2018-12-14T04:44:51.687Z,7.07
2018-12-14T04:47:18.783Z,6.97
2018-12-14T04:49:45.867Z,7.07
2018-12-14T04:52:12.941Z,7.47
2018-12-14T04:54:40.017Z,7.07
2018-12-14T04:57:07.084Z,7.07
2018-12-14T04:59:34.160Z,7.57
2018-12-14T05:02:01.241Z,7.30
2018-12-14T05:04:28.333Z,7.70
2018-12-14T05:06:55.428Z,7.27
2018-12-14T05:09:22.504Z,7.47
2018-12-14T05:15:19.501Z,7.80
2018-12-14T05:17:46.603Z,7.83
2018-12-14T05:20:13.696Z,7.67
2018-12-14T05:22:40.776Z,8.13
2018-12-14T05:25:07.880Z,7.73
2018-12-14T05:27:34.981Z,8.07
2018-12-14T05:30:02.122Z,7.90
2018-12-14T05:32:29.212Z,7.90
2018-12-14T05:34:56.370Z,7.83
2018-12-14T05:37:23.448Z,7.97
2018-12-14T05:39:50.535Z,8.07
2018-12-14T05:42:17.655Z,7.93
2018-12-14T05:44:44.763Z,7.93
2018-12-14T05:47:11.861Z,8.43
2018-12-14T05:49:38.965Z,8.00
2018-12-14T05:52:06.076Z,8.10
2018-12-14T05:54:33.176Z,8.47
2018-12-14T05:57:00.300Z,7.97
2018-12-14T05:59:27.388Z,8.20
2018-12-14T06:01:54.472Z,8.97
2018-12-14T06:04:21.657Z,8.20
2018-12-14T06:06:48.788Z,8.63
2018-12-14T06:09:15.960Z,9.40
2018-12-14T06:11:43.064Z,8.07
2018-12-14T06:14:10.136Z,8.60
2018-12-14T06:16:37.229Z,9.10
2018-12-14T06:19:04.321Z,8.50
2018-12-14T06:21:31.405Z,8.10
2018-12-14T06:23:58.496Z,9.03
2018-12-14T06:26:25.576Z,9.40
2018-12-14T06:28:52.674Z,9.33
2018-12-14T06:31:19.739Z,9.53
2018-12-14T06:33:46.809Z,9.00
2018-12-14T06:36:13.872Z,8.33
2018-12-14T06:38:40.955Z,9.50
2018-12-14T06:41:08.032Z,9.60
2018-12-14T06:43:35.129Z,8.57
2018-12-14T06:46:02.220Z,9.67
2018-12-14T06:48:29.310Z,9.30
2018-12-14T06:50:56.383Z,8.73
2018-12-14T06:53:23.472Z,8.57
2018-12-14T06:55:50.545Z,9.13
2018-12-14T06:58:17.656Z,8.53
2018-12-14T07:00:44.727Z,9.17
2018-12-14T07:03:11.799Z,9.30
2018-12-14T07:05:38.875Z,9.03
2018-12-14T07:08:05.953Z,8.73
2018-12-14T07:10:33.025Z,8.77
2018-12-14T07:13:00.148Z,8.33
2018-12-14T07:15:27.239Z,9.30
2018-12-14T07:17:54.368Z,9.33
2018-12-14T07:20:21.473Z,9.50
2018-12-14T07:22:48.579Z,10.07
2018-12-14T07:25:15.700Z,8.73
2018-12-14T07:27:42.776Z,9.10
2018-12-14T07:30:09.861Z,9.27
2018-12-14T07:32:38.170Z,9.27
2018-12-14T07:35:04.284Z,8.70
2018-12-14T07:37:31.366Z,8.37
2018-12-14T07:39:58.479Z,8.40
2018-12-14T07:42:25.556Z,9.80
2018-12-14T07:44:52.772Z,9.50
2018-12-14T07:47:19.772Z,8.87
2018-12-14T07:49:46.876Z,8.87
2018-12-14T07:52:13.949Z,8.97
2018-12-14T07:54:41.060Z,9.10
2018-12-14T07:57:08.200Z,8.23
2018-12-14T07:59:35.321Z,9.70
2018-12-14T08:02:02.404Z,9.03
2018-12-14T08:04:29.540Z,9.47
2018-12-14T08:06:56.659Z,9.20
2018-12-14T08:09:23.752Z,8.83
2018-12-14T08:11:50.856Z,8.97
2018-12-14T08:14:17.952Z,8.83
2018-12-14T08:16:45.051Z,9.93
2018-12-14T08:19:12.120Z,9.00
2018-12-14T08:21:39.211Z,8.83
2018-12-14T08:24:06.304Z,9.17
2018-12-14T08:26:33.380Z,8.93
2018-12-14T08:29:00.581Z,8.37
2018-12-14T08:31:27.660Z,8.77
2018-12-14T08:33:54.752Z,9.97
2018-12-14T08:36:21.828Z,9.80
2018-12-14T08:38:48.936Z,9.00
2018-12-14T08:41:16.004Z,9.10
2018-12-14T08:43:43.076Z,9.50
2018-12-14T08:46:10.156Z,9.47
2018-12-14T08:48:37.256Z,9.77
2018-12-14T08:51:04.336Z,9.40
2018-12-14T08:53:31.424Z,9.73
2018-12-14T08:55:58.509Z,8.83
2018-12-14T08:58:25.624Z,8.83
2018-12-14T09:00:52.724Z,8.97
2018-12-14T09:03:19.777Z,8.90
2018-12-14T09:05:46.873Z,8.30
2018-12-14T09:08:13.944Z,9.67
2018-12-14T09:10:41.013Z,9.73
2018-12-14T09:13:08.095Z,8.93
2018-12-14T09:15:35.204Z,9.93
2018-12-14T09:18:02.304Z,9.07
2018-12-14T09:20:29.381Z,9.70
2018-12-14T09:22:56.476Z,9.23
2018-12-14T09:25:23.557Z,8.90
2018-12-14T09:27:50.692Z,8.73
2018-12-14T09:30:17.762Z,9.87
2018-12-14T09:32:44.912Z,9.40
2018-12-14T09:35:12.039Z,9.67
2018-12-14T09:37:39.130Z,9.10
2018-12-14T09:40:06.288Z,9.07
2018-12-14T09:42:33.380Z,9.27
2018-12-14T09:45:00.459Z,9.27
2018-12-14T09:47:27.513Z,9.23
2018-12-14T09:49:54.608Z,8.60
2018-12-14T09:52:21.709Z,8.77
2018-12-14T09:54:48.823Z,9.73
2018-12-14T09:57:15.899Z,8.80
2018-12-14T09:59:43.015Z,9.03
2018-12-14T10:02:10.092Z,8.40
2018-12-14T10:04:37.196Z,10.00
2018-12-14T10:07:04.296Z,9.40
2018-12-14T10:09:31.384Z,9.23
2018-12-14T10:11:58.521Z,8.87
2018-12-14T10:14:25.641Z,9.13
2018-12-14T10:16:59.624Z,9.03
2018-12-14T10:19:26.748Z,8.67
2018-12-14T10:21:53.848Z,8.07
2018-12-14T10:24:20.922Z,8.53
2018-12-14T10:26:48.003Z,8.70
2018-12-14T10:29:15.104Z,8.07
2018-12-14T10:31:42.197Z,8.27
2018-12-14T10:34:09.317Z,9.27
2018-12-14T10:36:36.972Z,8.93
2018-12-14T10:39:04.761Z,8.23
2018-12-14T10:41:31.860Z,8.67
2018-12-14T10:43:58.935Z,8.33
2018-12-14T10:46:26.061Z,8.27
2018-12-14T10:48:59.972Z,7.90
2018-12-14T10:51:27.076Z,8.60
2018-12-14T10:53:54.149Z,7.47
2018-12-14T10:56:21.270Z,8.03
2018-12-14T10:58:48.345Z,7.57
2018-12-14T11:01:21.202Z,7.30
2018-12-14T11:03:48.266Z,7.27
2018-12-14T11:06:15.478Z,7.17
2018-12-14T11:08:42.565Z,6.87
2018-12-14T11:11:09.640Z,6.37
2018-12-14T11:13:36.756Z,6.83
2018-12-14T11:16:03.832Z,6.90
2018-12-14T11:18:30.897Z,7.07
2018-12-14T11:20:58.004Z,6.93
2018-12-14T11:23:25.096Z,7.17
2018-12-14T11:25:52.176Z,6.30
2018-12-14T11:28:19.245Z,6.70
2018-12-14T11:30:46.352Z,7.33
2018-12-14T11:33:13.428Z,7.27
2018-12-14T11:35:40.504Z,7.03
2018-12-14T11:38:07.580Z,6.50
2018-12-14T11:40:34.679Z,7.33
2018-12-14T11:43:01.748Z,6.23
2018-12-14T11:45:28.852Z,7.20
2018-12-14T11:47:55.924Z,5.73
2018-12-14T11:50:23.060Z,5.93
2018-12-14T11:52:50.164Z,6.13
2018-12-14T11:55:17.260Z,6.57
2018-12-14T11:57:44.353Z,6.50
2018-12-14T12:00:12.713Z,5.87
2018-12-14T12:02:43.107Z,6.07
2018-12-14T12:05:06.948Z,6.37
2018-12-14T12:07:34.039Z,6.13
2018-12-14T12:10:01.088Z,6.23
2018-12-14T12:12:28.229Z,5.70
2018-12-14T12:14:55.297Z,5.90
2018-12-14T12:17:22.392Z,5.97
2018-12-14T12:19:49.436Z,6.03
2018-12-14T12:22:16.514Z,6.50
2018-12-14T12:24:43.589Z,5.47
2018-12-14T12:27:10.688Z,5.67
2018-12-14T12:29:37.763Z,6.07
2018-12-14T12:32:04.872Z,6.13
2018-12-14T12:34:31.932Z,5.37
2018-12-14T12:36:59.024Z,5.87
2018-12-14T12:39:26.092Z,5.63
2018-12-14T12:41:53.188Z,5.57
2018-12-14T12:44:20.260Z,5.37
2018-12-14T12:46:47.349Z,5.83
2018-12-14T12:49:14.408Z,5.93
2018-12-14T12:51:41.529Z,5.87
2018-12-14T12:54:08.636Z,5.93
2018-12-14T12:56:35.737Z,5.73
2018-12-14T12:59:02.827Z,5.37
2018-12-14T13:01:29.939Z,5.53
2018-12-14T13:03:57.024Z,5.50
2018-12-14T13:06:24.100Z,5.03
2018-12-14T13:08:51.183Z,5.53
2018-12-14T13:11:18.276Z,5.07
2018-12-14T13:13:45.377Z,5.30
2018-12-14T13:16:12.478Z,5.70
2018-12-14T13:18:39.535Z,5.67
2018-12-14T13:21:06.643Z,5.90
2018-12-14T13:23:33.720Z,5.83
2018-12-14T13:26:00.799Z,5.77
2018-12-14T13:28:27.932Z,5.20
2018-12-14T13:30:55.046Z,5.27
2018-12-14T13:33:22.148Z,5.53
2018-12-14T13:35:49.277Z,5.50
2018-12-14T13:38:16.352Z,5.60
2018-12-14T13:40:43.476Z,5.33
2018-12-14T13:43:10.569Z,5.10
2018-12-14T13:45:37.707Z,5.70
2018-12-14T13:48:04.786Z,4.97
2018-12-14T13:50:31.885Z,5.30
2018-12-14T13:52:58.980Z,5.33
2018-12-14T13:55:26.772Z,5.07
2018-12-14T13:57:53.912Z,5.70
2018-12-14T14:00:20.990Z,5.23
2018-12-14T14:02:48.092Z,5.50
2018-12-14T14:05:15.176Z,4.93
2018-12-14T14:07:42.254Z,5.00
2018-12-14T14:10:09.361Z,5.03
2018-12-14T14:12:36.452Z,5.50
2018-12-14T14:15:04.065Z,5.53
2018-12-14T14:17:31.159Z,5.40
2018-12-14T14:19:58.263Z,5.10
2018-12-14T14:22:25.360Z,5.40
2018-12-14T14:24:52.457Z,5.07
2018-12-14T14:27:19.539Z,5.77
2018-12-14T14:29:46.676Z,4.90
2018-12-14T14:32:13.816Z,5.50
2018-12-14T14:34:40.929Z,5.90
2018-12-14T14:37:08.039Z,5.63
2018-12-14T14:39:35.124Z,5.47
2018-12-14T14:42:02.236Z,5.77
2018-12-14T14:44:29.296Z,5.90
2018-12-14T14:46:56.438Z,5.07
2018-12-14T14:49:23.541Z,6.00
2018-12-14T14:51:50.684Z,5.90
2018-12-14T14:54:17.792Z,5.97
2018-12-14T14:56:44.875Z,5.83
2018-12-14T14:59:11.956Z,5.40
2018-12-14T15:01:39.040Z,6.20
2018-12-14T15:04:06.104Z,6.17
2018-12-14T15:06:33.239Z,6.60
2018-12-14T15:09:00.348Z,6.10
2018-12-14T15:11:34.192Z,6.47
2018-12-14T15:14:01.272Z,7.17
2018-12-14T15:16:28.348Z,6.90
2018-12-14T15:18:55.436Z,6.83
2018-12-14T15:21:22.514Z,6.87
2018-12-14T15:23:49.613Z,6.20
2018-12-14T15:26:16.736Z,6.83
2018-12-14T15:28:43.888Z,6.90
2018-12-14T15:31:10.984Z,6.70
2018-12-14T15:33:38.084Z,7.90
2018-12-14T15:36:05.172Z,7.97
2018-12-14T15:38:32.276Z,7.40
2018-12-14T15:40:59.360Z,6.67
2018-12-14T15:43:26.464Z,7.40
2018-12-14T15:45:53.569Z,7.63
2018-12-14T15:48:20.672Z,7.47
2018-12-14T15:50:47.740Z,8.10
2018-12-14T15:53:14.820Z,7.17
2018-12-14T15:55:41.900Z,8.43
2018-12-14T15:58:09.016Z,7.57
2018-12-14T16:00:36.171Z,7.43
2018-12-14T16:03:03.273Z,7.97
2018-12-14T16:05:30.353Z,7.87
2018-12-14T16:07:57.454Z,8.40
2018-12-14T16:10:24.524Z,8.33
2018-12-14T16:12:51.624Z,7.50
2018-12-14T16:15:20.317Z,8.40
2018-12-14T16:17:45.824Z,7.87
2018-12-14T16:20:12.945Z,8.03
2018-12-14T16:22:40.028Z,8.10
2018-12-14T16:25:07.952Z,8.27
2018-12-14T16:27:35.054Z,8.73
2018-12-14T16:30:02.176Z,8.40
2018-12-14T16:32:29.275Z,8.20
2018-12-14T16:34:56.402Z,8.50
2018-12-14T16:37:23.470Z,7.87
2018-12-14T16:39:50.589Z,8.57
2018-12-14T16:42:17.716Z,9.30
2018-12-14T16:44:44.807Z,9.37
2018-12-14T16:47:11.980Z,9.03
2018-12-14T16:49:39.135Z,9.50
2018-12-14T16:52:06.280Z,9.53
2018-12-14T16:54:33.483Z,8.37
2018-12-14T16:57:00.580Z,9.17
2018-12-14T16:59:27.696Z,8.83
2018-12-14T17:01:54.816Z,10.00
2018-12-14T17:04:21.942Z,9.13
2018-12-14T17:06:49.046Z,9.77
2018-12-14T17:09:16.132Z,8.97
2018-12-14T17:11:43.247Z,9.57
2018-12-14T17:14:10.356Z,10.03
2018-12-14T17:16:37.485Z,9.43
2018-12-14T17:19:04.585Z,9.53
2018-12-14T17:21:31.672Z,9.83
2018-12-14T17:23:58.776Z,9.30
2018-12-14T17:26:25.880Z,9.97
2018-12-14T17:28:52.973Z,10.73
2018-12-14T17:31:20.051Z,9.73
2018-12-14T17:33:47.153Z,10.03
2018-12-14T17:36:14.208Z,9.70
2018-12-14T17:38:41.304Z,10.53
2018-12-14T17:41:08.404Z,9.80
2018-12-14T17:43:35.488Z,9.70
2018-12-14T17:46:02.602Z,9.43
2018-12-14T17:48:29.732Z,10.13
2018-12-14T17:50:56.843Z,10.17
2018-12-14T17:53:23.903Z,10.93
2018-12-14T17:55:50.964Z,11.33
2018-12-14T17:58:18.048Z,10.47
2018-12-14T18:00:45.152Z,10.07
2018-12-14T18:03:12.252Z,10.57
2018-12-14T18:05:39.364Z,9.83
2018-12-14T18:08:06.457Z,10.43
2018-12-14T18:10:33.552Z,11.70
2018-12-14T18:13:00.640Z,10.70
2018-12-14T18:15:27.736Z,10.97
2018-12-14T18:17:54.836Z,11.13
2018-12-14T18:20:21.924Z,11.40
2018-12-14T18:22:49.020Z,10.57
2018-12-14T18:25:16.131Z,11.47
2018-12-14T18:27:43.228Z,10.80
2018-12-14T18:30:10.321Z,11.03
2018-12-14T18:32:37.424Z,11.10
2018-12-14T18:35:05.727Z,11.13
2018-12-14T18:37:32.824Z,11.27
2018-12-14T18:39:59.916Z,10.93
2018-12-14T18:42:27.000Z,10.97
2018-12-14T18:44:54.113Z,10.43
2018-12-14T18:47:21.216Z,11.47
2018-12-14T18:49:48.335Z,11.50
2018-12-14T18:52:15.420Z,12.57
2018-12-14T18:54:42.569Z,12.10
2018-12-14T18:57:16.405Z,12.37
2018-12-14T18:59:43.508Z,12.07
2018-12-14T19:02:10.613Z,11.90
2018-12-14T19:04:37.727Z,11.73
2018-12-14T19:07:04.812Z,12.43
2018-12-14T19:09:31.916Z,11.83
2018-12-14T19:11:59.008Z,11.70
2018-12-14T19:14:26.097Z,12.57
2018-12-14T19:16:53.195Z,11.63
2018-12-14T19:19:20.265Z,12.47
2018-12-14T19:21:47.341Z,12.27
2018-12-14T19:24:14.620Z,11.30
2018-12-14T19:26:41.735Z,13.30
2018-12-14T19:29:08.820Z,12.83
2018-12-14T19:31:35.888Z,12.90
2018-12-14T19:34:02.964Z,12.57
2018-12-14T19:36:30.058Z,12.17
2018-12-14T19:38:57.189Z,12.40
2018-12-14T19:41:24.267Z,12.73
2018-12-14T19:43:51.360Z,13.70
2018-12-14T19:46:18.441Z,12.20
2018-12-14T19:48:45.508Z,12.17
2018-12-14T19:51:12.604Z,13.17
2018-12-14T19:53:39.668Z,13.27
2018-12-14T19:56:06.760Z,13.60
2018-12-14T19:58:33.837Z,13.27
2018-12-14T20:01:00.984Z,12.07
2018-12-14T20:03:28.045Z,12.43
2018-12-14T20:05:55.149Z,13.13
2018-12-14T20:08:22.219Z,13.23
2018-12-14T20:10:49.292Z,12.93
2018-12-14T20:13:16.377Z,13.53
2018-12-14T20:15:43.448Z,13.07
2018-12-14T20:18:10.501Z,13.33
2018-12-14T20:20:37.577Z,13.03
2018-12-14T20:23:04.683Z,13.47
2018-12-14T20:25:31.788Z,13.23
2018-12-14T20:27:58.864Z,13.03
2018-12-14T20:30:25.943Z,12.73
2018-12-14T20:32:53.017Z,13.33
2018-12-14T20:35:20.147Z,13.30
2018-12-14T20:37:47.240Z,13.50
2018-12-14T20:40:14.329Z,13.23
2018-12-14T20:42:41.460Z,13.63
2018-12-14T20:45:08.550Z,13.43
2018-12-14T20:47:35.648Z,14.00
2018-12-14T20:50:02.786Z,13.03
2018-12-14T20:52:29.916Z,12.73
2018-12-14T20:54:56.986Z,13.93
2018-12-14T20:57:24.076Z,13.00
2018-12-14T20:59:51.200Z,13.47
2018-12-14T21:02:18.307Z,14.37
2018-12-14T21:04:45.385Z,13.30
2018-12-14T21:07:12.489Z,12.97
2018-12-14T21:09:39.634Z,11.70
2018-12-14T21:12:06.717Z,12.23
2018-12-14T21:14:33.816Z,13.37
2018-12-14T21:17:00.915Z,12.60
2018-12-14T21:19:27.984Z,12.83
2018-12-14T21:21:55.078Z,12.97
2018-12-14T21:24:22.167Z,12.53
2018-12-14T21:26:49.267Z,13.03
2018-12-14T21:29:16.364Z,12.47
2018-12-14T21:31:43.463Z,12.70
2018-12-14T21:34:10.549Z,13.20
2018-12-14T21:36:37.656Z,13.30
2018-12-14T21:39:05.144Z,11.83
2018-12-14T21:41:32.248Z,12.70
2018-12-14T21:43:59.377Z,12.70
2018-12-14T21:46:32.419Z,12.47
2018-12-14T21:48:53.588Z,12.00
2018-12-14T21:51:20.680Z,13.03
2018-12-14T21:53:47.800Z,12.30
2018-12-14T21:56:14.879Z,11.97
2018-12-14T21:58:41.967Z,11.80
2018-12-14T22:01:09.031Z,12.40
2018-12-14T22:03:36.873Z,12.53
2018-12-14T22:06:03.953Z,12.80
2018-12-14T22:08:31.047Z,12.37
2018-12-14T22:10:58.139Z,12.17
2018-12-14T22:13:25.215Z,12.90
2018-12-14T22:15:52.304Z,11.27
2018-12-14T22:18:19.433Z,11.93
2018-12-14T22:20:46.519Z,12.23
2018-12-14T22:23:13.622Z,12.60
2018-12-14T22:25:40.701Z,12.70
2018-12-14T22:28:07.796Z,11.47
2018-12-14T22:30:34.884Z,11.73
2018-12-14T22:33:01.980Z,13.03
2018-12-14T22:35:29.068Z,11.13
2018-12-14T22:37:56.161Z,10.93
2018-12-14T22:40:23.256Z,10.40
2018-12-14T22:42:50.357Z,11.90
2018-12-14T22:45:17.467Z,11.80
2018-12-14T22:47:44.566Z,11.87
2018-12-14T22:50:11.658Z,11.17
2018-12-14T22:52:38.753Z,11.07
2018-12-14T22:55:05.859Z,11.73
2018-12-14T22:57:32.964Z,11.43
2018-12-14T23:00:00.064Z,10.60
2018-12-14T23:02:27.624Z,11.37
2018-12-14T23:04:54.724Z,11.37
2018-12-14T23:07:21.816Z,11.67
2018-12-14T23:09:48.972Z,11.00
2018-12-14T23:12:16.088Z,11.30
2018-12-14T23:14:43.152Z,11.57
2018-12-14T23:17:10.221Z,12.33
2018-12-14T23:19:37.326Z,10.70
2018-12-14T23:22:04.452Z,11.53
2018-12-14T23:24:31.576Z,10.37
2018-12-14T23:26:58.680Z,10.13
2018-12-14T23:29:25.772Z,11.60
2018-12-14T23:31:53.033Z,11.50
2018-12-14T23:34:20.152Z,11.37
2018-12-14T23:36:47.240Z,10.80
2018-12-14T23:39:14.352Z,10.07
2018-12-14T23:41:41.469Z,10.37
2018-12-14T23:44:08.571Z,10.83
2018-12-14T23:46:35.649Z,10.50
2018-12-14T23:49:02.749Z,10.13
2018-12-14T23:51:29.852Z,10.27
2018-12-14T23:53:56.959Z,9.83
2018-12-14T23:56:24.055Z,10.67
2018-12-14T23:58:51.160Z,8.90
